sensor_id;sensor_type;location;lat;lon;timestamp;P1;durP1;ratioP1;P2;durP2;ratioP2
22417;SDS011;11376;50.932;4.442;2023-05-19T00:00:55;16.70;;;5.37;;
22417;SDS011;11376;50.932;4.442;2023-05-19T00:03:23;15.87;;;5.33;;
22417;SDS011;11376;50.932;4.442;2023-05-19T00:05:50;17.80;;;6.13;;
22417;SDS011;11376;50.932;4.442;2023-05-19T00:08:18;13.33;;;5.60;;
22417;SDS011;11376;50.932;4.442;2023-05-19T00:10:44;12.00;;;5.53;;
22417;SDS011;11376;50.932;4.442;2023-05-19T00:13:10;10.00;;;5.33;;
22417;SDS011;11376;50.932;4.442;2023-05-19T00:15:36;18.23;;;5.67;;
22417;SDS011;11376;50.932;4.442;2023-05-19T00:18:02;15.27;;;5.70;;
22417;SDS011;11376;50.932;4.442;2023-05-19T00:20:28;17.03;;;5.60;;
22417;SDS011;11376;50.932;4.442;2023-05-19T00:22:54;12.50;;;5.60;;
22417;SDS011;11376;50.932;4.442;2023-05-19T00:25:20;9.53;;;5.40;;
22417;SDS011;11376;50.932;4.442;2023-05-19T00:27:46;12.37;;;5.93;;
22417;SDS011;11376;50.932;4.442;2023-05-19T00:30:11;17.77;;;6.17;;
22417;SDS011;11376;50.932;4.442;2023-05-19T00:32:37;13.67;;;5.97;;
22417;SDS011;11376;50.932;4.442;2023-05-19T00:35:03;15.97;;;5.73;;
22417;SDS011;11376;50.932;4.442;2023-05-19T00:37:29;11.47;;;5.67;;
22417;SDS011;11376;50.932;4.442;2023-05-19T00:39:55;15.30;;;6.33;;
22417;SDS011;11376;50.932;4.442;2023-05-19T00:42:22;12.87;;;6.03;;
22417;SDS011;11376;50.932;4.442;2023-05-19T00:44:48;12.93;;;6.00;;
22417;SDS011;11376;50.932;4.442;2023-05-19T00:47:13;15.50;;;6.43;;
22417;SDS011;11376;50.932;4.442;2023-05-19T00:49:40;13.57;;;6.20;;
22417;SDS011;11376;50.932;4.442;2023-05-19T00:52:06;16.43;;;6.30;;
22417;SDS011;11376;50.932;4.442;2023-05-19T00:54:34;15.07;;;6.63;;
22417;SDS011;11376;50.932;4.442;2023-05-19T00:57:00;14.73;;;6.93;;
22417;SDS011;11376;50.932;4.442;2023-05-19T00:59:27;13.33;;;6.30;;
22417;SDS011;11376;50.932;4.442;2023-05-19T01:01:53;16.80;;;7.00;;
22417;SDS011;11376;50.932;4.442;2023-05-19T01:04:19;16.93;;;7.17;;
22417;SDS011;11376;50.932;4.442;2023-05-19T01:06:46;14.03;;;6.40;;
22417;SDS011;11376;50.932;4.442;2023-05-19T01:09:13;14.23;;;6.43;;
22417;SDS011;11376;50.932;4.442;2023-05-19T01:11:40;16.23;;;6.70;;
22417;SDS011;11376;50.932;4.442;2023-05-19T01:14:06;17.67;;;6.87;;
22417;SDS011;11376;50.932;4.442;2023-05-19T01:16:42;16.13;;;6.57;;
22417;SDS011;11376;50.932;4.442;2023-05-19T01:33:08;15.03;;;7.23;;
22417;SDS011;11376;50.932;4.442;2023-05-19T01:35:38;16.00;;;7.37;;
22417;SDS011;11376;50.932;4.442;2023-05-19T01:38:06;17.30;;;7.20;;
22417;SDS011;11376;50.932;4.442;2023-05-19T01:40:35;14.33;;;7.40;;
22417;SDS011;11376;50.932;4.442;2023-05-19T01:43:03;17.07;;;7.73;;
22417;SDS011;11376;50.932;4.442;2023-05-19T01:45:31;17.67;;;7.70;;
22417;SDS011;11376;50.932;4.442;2023-05-19T01:47:58;18.17;;;7.90;;
22417;SDS011;11376;50.932;4.442;2023-05-19T01:50:26;18.90;;;8.13;;
22417;SDS011;11376;50.932;4.442;2023-05-19T01:52:53;15.63;;;8.40;;
22417;SDS011;11376;50.932;4.442;2023-05-19T01:55:19;18.07;;;8.40;;
22417;SDS011;11376;50.932;4.442;2023-05-19T02:08:57;18.63;;;8.80;;
22417;SDS011;11376;50.932;4.442;2023-05-19T02:17:14;16.40;;;8.20;;
22417;SDS011;11376;50.932;4.442;2023-05-19T02:19:42;17.40;;;8.67;;
22417;SDS011;11376;50.932;4.442;2023-05-19T02:22:08;19.67;;;8.13;;
22417;SDS011;11376;50.932;4.442;2023-05-19T02:24:34;16.43;;;8.77;;
22417;SDS011;11376;50.932;4.442;2023-05-19T02:27:01;15.77;;;8.20;;
22417;SDS011;11376;50.932;4.442;2023-05-19T02:29:27;16.80;;;8.43;;
22417;SDS011;11376;50.932;4.442;2023-05-19T02:31:53;15.87;;;8.73;;
22417;SDS011;11376;50.932;4.442;2023-05-19T02:34:19;13.93;;;8.77;;
22417;SDS011;11376;50.932;4.442;2023-05-19T02:36:45;20.03;;;8.83;;
22417;SDS011;11376;50.932;4.442;2023-05-19T02:39:13;17.27;;;8.70;;
22417;SDS011;11376;50.932;4.442;2023-05-19T02:41:40;16.00;;;8.50;;
22417;SDS011;11376;50.932;4.442;2023-05-19T02:44:05;17.90;;;8.50;;
22417;SDS011;11376;50.932;4.442;2023-05-19T02:46:31;16.00;;;8.53;;
22417;SDS011;11376;50.932;4.442;2023-05-19T02:48:57;16.83;;;8.57;;
22417;SDS011;11376;50.932;4.442;2023-05-19T02:51:23;18.13;;;9.07;;
22417;SDS011;11376;50.932;4.442;2023-05-19T02:53:49;21.00;;;8.23;;
22417;SDS011;11376;50.932;4.442;2023-05-19T02:56:15;16.80;;;8.53;;
22417;SDS011;11376;50.932;4.442;2023-05-19T02:58:41;20.43;;;8.60;;
22417;SDS011;11376;50.932;4.442;2023-05-19T03:01:07;18.63;;;9.20;;
22417;SDS011;11376;50.932;4.442;2023-05-19T03:03:33;16.73;;;8.07;;
22417;SDS011;11376;50.932;4.442;2023-05-19T03:05:59;18.00;;;8.60;;
22417;SDS011;11376;50.932;4.442;2023-05-19T03:08:26;17.23;;;8.33;;
22417;SDS011;11376;50.932;4.442;2023-05-19T03:10:52;19.07;;;8.83;;
22417;SDS011;11376;50.932;4.442;2023-05-19T03:13:18;15.70;;;8.70;;
22417;SDS011;11376;50.932;4.442;2023-05-19T03:15:44;17.70;;;9.47;;
22417;SDS011;11376;50.932;4.442;2023-05-19T03:18:09;16.47;;;8.70;;
22417;SDS011;11376;50.932;4.442;2023-05-19T03:20:38;19.67;;;9.20;;
22417;SDS011;11376;50.932;4.442;2023-05-19T03:23:06;20.40;;;9.23;;
22417;SDS011;11376;50.932;4.442;2023-05-19T03:25:33;20.53;;;9.20;;
22417;SDS011;11376;50.932;4.442;2023-05-19T03:27:58;16.43;;;8.90;;
22417;SDS011;11376;50.932;4.442;2023-05-19T03:30:24;17.33;;;9.40;;
22417;SDS011;11376;50.932;4.442;2023-05-19T03:32:50;16.87;;;9.40;;
22417;SDS011;11376;50.932;4.442;2023-05-19T03:35:16;18.70;;;9.40;;
22417;SDS011;11376;50.932;4.442;2023-05-19T03:37:41;19.27;;;9.37;;
22417;SDS011;11376;50.932;4.442;2023-05-19T03:40:07;20.57;;;9.17;;
22417;SDS011;11376;50.932;4.442;2023-05-19T03:42:34;20.20;;;9.33;;
22417;SDS011;11376;50.932;4.442;2023-05-19T03:45:00;16.63;;;9.20;;
22417;SDS011;11376;50.932;4.442;2023-05-19T03:47:26;19.10;;;9.27;;
22417;SDS011;11376;50.932;4.442;2023-05-19T03:49:52;20.33;;;9.30;;
22417;SDS011;11376;50.932;4.442;2023-05-19T03:52:18;19.73;;;9.60;;
22417;SDS011;11376;50.932;4.442;2023-05-19T03:54:43;24.83;;;10.47;;
22417;SDS011;11376;50.932;4.442;2023-05-19T03:57:09;18.93;;;9.90;;
22417;SDS011;11376;50.932;4.442;2023-05-19T03:59:35;24.17;;;10.07;;
22417;SDS011;11376;50.932;4.442;2023-05-19T04:02:01;20.10;;;9.27;;
22417;SDS011;11376;50.932;4.442;2023-05-19T04:04:27;19.83;;;9.97;;
22417;SDS011;11376;50.932;4.442;2023-05-19T04:06:53;22.37;;;10.07;;
22417;SDS011;11376;50.932;4.442;2023-05-19T04:09:19;19.67;;;9.83;;
22417;SDS011;11376;50.932;4.442;2023-05-19T04:11:45;26.70;;;10.10;;
22417;SDS011;11376;50.932;4.442;2023-05-19T04:14:11;19.80;;;10.57;;
22417;SDS011;11376;50.932;4.442;2023-05-19T04:16:37;19.47;;;9.80;;
22417;SDS011;11376;50.932;4.442;2023-05-19T04:19:02;20.40;;;10.00;;
22417;SDS011;11376;50.932;4.442;2023-05-19T04:21:28;19.73;;;10.07;;
22417;SDS011;11376;50.932;4.442;2023-05-19T04:23:54;18.67;;;9.63;;
22417;SDS011;11376;50.932;4.442;2023-05-19T04:26:20;19.03;;;9.50;;
22417;SDS011;11376;50.932;4.442;2023-05-19T04:28:46;24.13;;;10.50;;
22417;SDS011;11376;50.932;4.442;2023-05-19T04:31:13;22.87;;;9.90;;
22417;SDS011;11376;50.932;4.442;2023-05-19T04:33:39;22.53;;;10.27;;
22417;SDS011;11376;50.932;4.442;2023-05-19T04:36:05;19.60;;;9.60;;
22417;SDS011;11376;50.932;4.442;2023-05-19T04:38:34;20.50;;;10.47;;
22417;SDS011;11376;50.932;4.442;2023-05-19T04:41:01;22.53;;;9.97;;
22417;SDS011;11376;50.932;4.442;2023-05-19T04:43:28;20.20;;;10.40;;
22417;SDS011;11376;50.932;4.442;2023-05-19T04:45:53;19.93;;;10.17;;
22417;SDS011;11376;50.932;4.442;2023-05-19T04:48:22;20.67;;;9.80;;
22417;SDS011;11376;50.932;4.442;2023-05-19T04:50:47;18.90;;;9.70;;
22417;SDS011;11376;50.932;4.442;2023-05-19T04:53:14;19.93;;;10.07;;
22417;SDS011;11376;50.932;4.442;2023-05-19T04:55:39;18.77;;;9.57;;
22417;SDS011;11376;50.932;4.442;2023-05-19T04:58:05;20.03;;;10.20;;
22417;SDS011;11376;50.932;4.442;2023-05-19T05:00:31;19.27;;;9.73;;
22417;SDS011;11376;50.932;4.442;2023-05-19T05:02:59;20.43;;;9.90;;
22417;SDS011;11376;50.932;4.442;2023-05-19T05:05:29;21.83;;;9.87;;
22417;SDS011;11376;50.932;4.442;2023-05-19T05:07:55;18.43;;;10.00;;
22417;SDS011;11376;50.932;4.442;2023-05-19T05:10:22;20.47;;;9.50;;
22417;SDS011;11376;50.932;4.442;2023-05-19T05:12:48;21.20;;;9.20;;
22417;SDS011;11376;50.932;4.442;2023-05-19T05:15:14;20.03;;;9.80;;
22417;SDS011;11376;50.932;4.442;2023-05-19T05:17:40;18.37;;;8.90;;
22417;SDS011;11376;50.932;4.442;2023-05-19T05:20:07;16.20;;;9.30;;
22417;SDS011;11376;50.932;4.442;2023-05-19T05:22:34;17.53;;;8.90;;
22417;SDS011;11376;50.932;4.442;2023-05-19T05:25:00;20.73;;;9.80;;
22417;SDS011;11376;50.932;4.442;2023-05-19T05:27:27;17.30;;;8.87;;
22417;SDS011;11376;50.932;4.442;2023-05-19T05:29:52;22.13;;;10.07;;
22417;SDS011;11376;50.932;4.442;2023-05-19T05:32:18;19.23;;;8.80;;
22417;SDS011;11376;50.932;4.442;2023-05-19T05:34:44;15.90;;;8.80;;
22417;SDS011;11376;50.932;4.442;2023-05-19T05:37:10;15.33;;;8.97;;
22417;SDS011;11376;50.932;4.442;2023-05-19T05:39:36;19.90;;;8.80;;
22417;SDS011;11376;50.932;4.442;2023-05-19T05:42:01;22.40;;;9.57;;
22417;SDS011;11376;50.932;4.442;2023-05-19T05:44:27;17.43;;;9.63;;
22417;SDS011;11376;50.932;4.442;2023-05-19T05:46:53;20.50;;;9.00;;
22417;SDS011;11376;50.932;4.442;2023-05-19T05:49:19;19.27;;;9.10;;
22417;SDS011;11376;50.932;4.442;2023-05-19T05:51:45;20.20;;;8.27;;
22417;SDS011;11376;50.932;4.442;2023-05-19T05:54:11;17.50;;;8.70;;
22417;SDS011;11376;50.932;4.442;2023-05-19T05:56:37;14.20;;;8.23;;
22417;SDS011;11376;50.932;4.442;2023-05-19T05:59:05;15.97;;;8.30;;
22417;SDS011;11376;50.932;4.442;2023-05-19T06:01:31;19.67;;;8.47;;
22417;SDS011;11376;50.932;4.442;2023-05-19T06:03:57;22.03;;;8.43;;
22417;SDS011;11376;50.932;4.442;2023-05-19T06:06:22;17.30;;;8.47;;
22417;SDS011;11376;50.932;4.442;2023-05-19T06:08:48;16.13;;;8.37;;
22417;SDS011;11376;50.932;4.442;2023-05-19T06:11:14;16.90;;;8.17;;
22417;SDS011;11376;50.932;4.442;2023-05-19T06:13:39;18.17;;;8.60;;
22417;SDS011;11376;50.932;4.442;2023-05-19T06:16:05;17.70;;;8.47;;
22417;SDS011;11376;50.932;4.442;2023-05-19T06:18:31;14.97;;;8.27;;
22417;SDS011;11376;50.932;4.442;2023-05-19T06:20:57;19.20;;;9.07;;
22417;SDS011;11376;50.932;4.442;2023-05-19T06:23:23;14.60;;;8.13;;
22417;SDS011;11376;50.932;4.442;2023-05-19T06:25:50;16.43;;;8.57;;
22417;SDS011;11376;50.932;4.442;2023-05-19T06:28:16;16.87;;;7.90;;
22417;SDS011;11376;50.932;4.442;2023-05-19T06:30:42;19.70;;;8.73;;
22417;SDS011;11376;50.932;4.442;2023-05-19T06:33:08;16.37;;;8.47;;
22417;SDS011;11376;50.932;4.442;2023-05-19T06:35:33;14.37;;;7.93;;
22417;SDS011;11376;50.932;4.442;2023-05-19T06:37:59;14.60;;;8.03;;
22417;SDS011;11376;50.932;4.442;2023-05-19T06:40:25;13.27;;;7.67;;
22417;SDS011;11376;50.932;4.442;2023-05-19T06:42:51;20.47;;;8.00;;
22417;SDS011;11376;50.932;4.442;2023-05-19T06:45:16;16.50;;;7.87;;
22417;SDS011;11376;50.932;4.442;2023-05-19T06:47:45;17.27;;;8.13;;
22417;SDS011;11376;50.932;4.442;2023-05-19T06:50:11;12.83;;;7.30;;
22417;SDS011;11376;50.932;4.442;2023-05-19T06:52:37;18.30;;;8.00;;
22417;SDS011;11376;50.932;4.442;2023-05-19T06:55:03;18.20;;;8.13;;
22417;SDS011;11376;50.932;4.442;2023-05-19T06:57:29;22.03;;;8.43;;
22417;SDS011;11376;50.932;4.442;2023-05-19T06:59:55;18.17;;;8.07;;
22417;SDS011;11376;50.932;4.442;2023-05-19T07:02:21;18.30;;;7.83;;
22417;SDS011;11376;50.932;4.442;2023-05-19T07:04:46;16.57;;;7.87;;
22417;SDS011;11376;50.932;4.442;2023-05-19T07:07:12;17.00;;;7.83;;
22417;SDS011;11376;50.932;4.442;2023-05-19T07:09:38;13.37;;;7.63;;
22417;SDS011;11376;50.932;4.442;2023-05-19T07:12:04;17.27;;;7.63;;
22417;SDS011;11376;50.932;4.442;2023-05-19T07:14:30;16.13;;;7.60;;
22417;SDS011;11376;50.932;4.442;2023-05-19T07:16:56;16.00;;;7.40;;
22417;SDS011;11376;50.932;4.442;2023-05-19T07:19:22;21.03;;;7.80;;
22417;SDS011;11376;50.932;4.442;2023-05-19T07:21:48;18.10;;;7.20;;
22417;SDS011;11376;50.932;4.442;2023-05-19T07:24:14;14.45;;;7.50;;
22417;SDS011;11376;50.932;4.442;2023-05-19T07:26:40;13.98;;;7.40;;
22417;SDS011;11376;50.932;4.442;2023-05-19T07:29:06;16.87;;;8.17;;
22417;SDS011;11376;50.932;4.442;2023-05-19T07:31:32;16.95;;;7.22;;
22417;SDS011;11376;50.932;4.442;2023-05-19T07:33:58;19.23;;;7.47;;
22417;SDS011;11376;50.932;4.442;2023-05-19T07:36:24;14.43;;;7.88;;
22417;SDS011;11376;50.932;4.442;2023-05-19T07:38:49;14.82;;;7.78;;
22417;SDS011;11376;50.932;4.442;2023-05-19T07:41:15;15.30;;;7.32;;
22417;SDS011;11376;50.932;4.442;2023-05-19T07:43:41;20.60;;;7.80;;
22417;SDS011;11376;50.932;4.442;2023-05-19T07:46:07;18.48;;;7.70;;
22417;SDS011;11376;50.932;4.442;2023-05-19T07:48:33;17.40;;;8.48;;
22417;SDS011;11376;50.932;4.442;2023-05-19T07:50:58;15.57;;;8.02;;
22417;SDS011;11376;50.932;4.442;2023-05-19T07:53:24;15.63;;;7.60;;
22417;SDS011;11376;50.932;4.442;2023-05-19T07:55:50;13.63;;;7.75;;
22417;SDS011;11376;50.932;4.442;2023-05-19T07:58:16;14.30;;;7.47;;
22417;SDS011;11376;50.932;4.442;2023-05-19T08:00:42;13.75;;;7.07;;
22417;SDS011;11376;50.932;4.442;2023-05-19T08:03:09;16.77;;;6.77;;
22417;SDS011;11376;50.932;4.442;2023-05-19T08:05:35;12.32;;;6.75;;
22417;SDS011;11376;50.932;4.442;2023-05-19T08:08:02;17.42;;;7.10;;
22417;SDS011;11376;50.932;4.442;2023-05-19T08:10:27;15.43;;;6.68;;
22417;SDS011;11376;50.932;4.442;2023-05-19T08:12:53;14.30;;;6.55;;
22417;SDS011;11376;50.932;4.442;2023-05-19T08:15:19;13.18;;;6.47;;
22417;SDS011;11376;50.932;4.442;2023-05-19T08:17:45;14.05;;;7.00;;
22417;SDS011;11376;50.932;4.442;2023-05-19T08:20:11;9.75;;;5.60;;
22417;SDS011;11376;50.932;4.442;2023-05-19T08:22:37;14.75;;;6.20;;
22417;SDS011;11376;50.932;4.442;2023-05-19T08:25:03;15.57;;;6.80;;
22417;SDS011;11376;50.932;4.442;2023-05-19T08:27:29;13.95;;;6.50;;
22417;SDS011;11376;50.932;4.442;2023-05-19T08:29:55;21.77;;;7.20;;
22417;SDS011;11376;50.932;4.442;2023-05-19T08:32:21;14.57;;;6.32;;
22417;SDS011;11376;50.932;4.442;2023-05-19T08:34:48;14.02;;;6.43;;
22417;SDS011;11376;50.932;4.442;2023-05-19T08:37:13;11.73;;;6.38;;
22417;SDS011;11376;50.932;4.442;2023-05-19T08:39:39;15.35;;;5.88;;
22417;SDS011;11376;50.932;4.442;2023-05-19T08:42:05;15.25;;;5.90;;
22417;SDS011;11376;50.932;4.442;2023-05-19T08:44:33;14.00;;;5.32;;
22417;SDS011;11376;50.932;4.442;2023-05-19T08:47:01;13.48;;;5.40;;
22417;SDS011;11376;50.932;4.442;2023-05-19T08:49:37;12.07;;;4.95;;
22417;SDS011;11376;50.932;4.442;2023-05-19T08:52:18;13.45;;;5.28;;
22417;SDS011;11376;50.932;4.442;2023-05-19T08:54:57;11.60;;;5.03;;
22417;SDS011;11376;50.932;4.442;2023-05-19T08:57:28;10.07;;;5.22;;
22417;SDS011;11376;50.932;4.442;2023-05-19T08:59:54;14.07;;;5.03;;
22417;SDS011;11376;50.932;4.442;2023-05-19T09:02:21;11.10;;;5.05;;
22417;SDS011;11376;50.932;4.442;2023-05-19T09:04:48;15.05;;;5.40;;
22417;SDS011;11376;50.932;4.442;2023-05-19T09:07:14;10.80;;;5.13;;
22417;SDS011;11376;50.932;4.442;2023-05-19T09:09:40;11.70;;;4.53;;
22417;SDS011;11376;50.932;4.442;2023-05-19T09:12:10;12.18;;;4.20;;
22417;SDS011;11376;50.932;4.442;2023-05-19T09:14:37;10.32;;;4.07;;
22417;SDS011;11376;50.932;4.442;2023-05-19T09:17:04;10.18;;;3.97;;
22417;SDS011;11376;50.932;4.442;2023-05-19T09:19:30;11.13;;;4.30;;
22417;SDS011;11376;50.932;4.442;2023-05-19T09:21:57;10.20;;;3.90;;
22417;SDS011;11376;50.932;4.442;2023-05-19T09:24:25;9.75;;;3.47;;
22417;SDS011;11376;50.932;4.442;2023-05-19T09:26:51;12.05;;;3.90;;
22417;SDS011;11376;50.932;4.442;2023-05-19T09:29:20;9.45;;;3.88;;
22417;SDS011;11376;50.932;4.442;2023-05-19T09:31:50;8.50;;;3.45;;
22417;SDS011;11376;50.932;4.442;2023-05-19T09:34:18;12.32;;;3.65;;
22417;SDS011;11376;50.932;4.442;2023-05-19T09:36:46;8.65;;;3.55;;
22417;SDS011;11376;50.932;4.442;2023-05-19T09:39:18;6.65;;;3.33;;
22417;SDS011;11376;50.932;4.442;2023-05-19T09:41:46;10.98;;;3.40;;
22417;SDS011;11376;50.932;4.442;2023-05-19T09:46:51;12.00;;;2.63;;
22417;SDS011;11376;50.932;4.442;2023-05-19T09:49:24;5.93;;;2.50;;
22417;SDS011;11376;50.932;4.442;2023-05-19T09:54:22;10.27;;;2.83;;
22417;SDS011;11376;50.932;4.442;2023-05-19T09:56:56;8.95;;;2.92;;
22417;SDS011;11376;50.932;4.442;2023-05-19T09:59:26;10.68;;;2.60;;
22417;SDS011;11376;50.932;4.442;2023-05-19T10:01:56;12.90;;;2.60;;
22417;SDS011;11376;50.932;4.442;2023-05-19T10:04:24;7.93;;;2.38;;
22417;SDS011;11376;50.932;4.442;2023-05-19T10:06:52;10.38;;;2.40;;
22417;SDS011;11376;50.932;4.442;2023-05-19T10:09:20;8.85;;;2.30;;
22417;SDS011;11376;50.932;4.442;2023-05-19T10:11:53;8.57;;;2.17;;
22417;SDS011;11376;50.932;4.442;2023-05-19T10:14:27;9.32;;;1.88;;
22417;SDS011;11376;50.932;4.442;2023-05-19T10:16:54;7.72;;;2.58;;
22417;SDS011;11376;50.932;4.442;2023-05-19T10:19:23;9.98;;;2.13;;
22417;SDS011;11376;50.932;4.442;2023-05-19T10:21:50;10.82;;;2.30;;
22417;SDS011;11376;50.932;4.442;2023-05-19T10:24:17;9.80;;;2.35;;
22417;SDS011;11376;50.932;4.442;2023-05-19T10:29:28;7.95;;;1.70;;
22417;SDS011;11376;50.932;4.442;2023-05-19T10:31:57;7.55;;;2.20;;
22417;SDS011;11376;50.932;4.442;2023-05-19T10:45:40;9.38;;;2.22;;
22417;SDS011;11376;50.932;4.442;2023-05-19T10:48:13;7.60;;;1.90;;
22417;SDS011;11376;50.932;4.442;2023-05-19T10:50:42;9.05;;;2.10;;
22417;SDS011;11376;50.932;4.442;2023-05-19T10:53:15;6.88;;;1.80;;
22417;SDS011;11376;50.932;4.442;2023-05-19T10:58:36;7.13;;;2.17;;
22417;SDS011;11376;50.932;4.442;2023-05-19T11:01:12;7.40;;;2.20;;
22417;SDS011;11376;50.932;4.442;2023-05-19T11:08:51;9.40;;;2.45;;
22417;SDS011;11376;50.932;4.442;2023-05-19T11:11:25;8.95;;;2.70;;
22417;SDS011;11376;50.932;4.442;2023-05-19T11:13:53;9.15;;;2.30;;
22417;SDS011;11376;50.932;4.442;2023-05-19T11:16:30;10.27;;;2.20;;
22417;SDS011;11376;50.932;4.442;2023-05-19T11:19:00;8.82;;;2.20;;
22417;SDS011;11376;50.932;4.442;2023-05-19T11:21:45;9.88;;;2.40;;
22417;SDS011;11376;50.932;4.442;2023-05-19T11:27:31;9.15;;;2.40;;
22417;SDS011;11376;50.932;4.442;2023-05-19T11:32:34;6.82;;;2.10;;
22417;SDS011;11376;50.932;4.442;2023-05-19T11:35:03;7.68;;;2.28;;
22417;SDS011;11376;50.932;4.442;2023-05-19T11:37:32;7.90;;;2.42;;
22417;SDS011;11376;50.932;4.442;2023-05-19T11:40:00;7.05;;;2.20;;
22417;SDS011;11376;50.932;4.442;2023-05-19T11:42:26;9.90;;;2.30;;
22417;SDS011;11376;50.932;4.442;2023-05-19T11:44:55;11.25;;;2.60;;
22417;SDS011;11376;50.932;4.442;2023-05-19T11:47:20;21.40;;;4.10;;
22417;SDS011;11376;50.932;4.442;2023-05-19T11:49:46;7.90;;;2.25;;
22417;SDS011;11376;50.932;4.442;2023-05-19T11:52:12;7.43;;;2.20;;
22417;SDS011;11376;50.932;4.442;2023-05-19T11:54:39;7.53;;;2.15;;
22417;SDS011;11376;50.932;4.442;2023-05-19T11:57:08;6.38;;;2.30;;
22417;SDS011;11376;50.932;4.442;2023-05-19T11:59:35;7.07;;;2.40;;
22417;SDS011;11376;50.932;4.442;2023-05-19T12:02:24;7.25;;;2.20;;
22417;SDS011;11376;50.932;4.442;2023-05-19T12:04:50;6.25;;;2.33;;
22417;SDS011;11376;50.932;4.442;2023-05-19T12:07:16;7.53;;;2.08;;
22417;SDS011;11376;50.932;4.442;2023-05-19T12:09:44;7.78;;;2.28;;
22417;SDS011;11376;50.932;4.442;2023-05-19T12:12:18;8.85;;;2.13;;
22417;SDS011;11376;50.932;4.442;2023-05-19T12:14:45;6.82;;;2.28;;
22417;SDS011;11376;50.932;4.442;2023-05-19T12:17:12;6.22;;;1.95;;
22417;SDS011;11376;50.932;4.442;2023-05-19T12:19:40;7.47;;;2.10;;
22417;SDS011;11376;50.932;4.442;2023-05-19T12:22:08;11.23;;;2.20;;
22417;SDS011;11376;50.932;4.442;2023-05-19T12:24:34;7.32;;;2.13;;
22417;SDS011;11376;50.932;4.442;2023-05-19T12:29:39;7.32;;;2.10;;
22417;SDS011;11376;50.932;4.442;2023-05-19T12:32:08;7.57;;;2.10;;
22417;SDS011;11376;50.932;4.442;2023-05-19T12:34:35;7.32;;;2.03;;
22417;SDS011;11376;50.932;4.442;2023-05-19T12:37:02;6.90;;;1.88;;
22417;SDS011;11376;50.932;4.442;2023-05-19T12:39:31;7.40;;;1.83;;
22417;SDS011;11376;50.932;4.442;2023-05-19T12:42:01;7.47;;;1.92;;
22417;SDS011;11376;50.932;4.442;2023-05-19T12:44:28;8.10;;;2.13;;
22417;SDS011;11376;50.932;4.442;2023-05-19T12:46:55;9.68;;;2.22;;
22417;SDS011;11376;50.932;4.442;2023-05-19T12:49:22;7.65;;;1.98;;
22417;SDS011;11376;50.932;4.442;2023-05-19T12:51:51;5.90;;;1.50;;
22417;SDS011;11376;50.932;4.442;2023-05-19T12:54:18;7.32;;;2.00;;
22417;SDS011;11376;50.932;4.442;2023-05-19T12:56:48;6.40;;;1.92;;
22417;SDS011;11376;50.932;4.442;2023-05-19T12:59:23;7.05;;;1.73;;
22417;SDS011;11376;50.932;4.442;2023-05-19T13:01:56;6.28;;;1.98;;
22417;SDS011;11376;50.932;4.442;2023-05-19T13:04:23;5.32;;;2.20;;
22417;SDS011;11376;50.932;4.442;2023-05-19T13:06:49;5.50;;;1.92;;
22417;SDS011;11376;50.932;4.442;2023-05-19T13:09:15;8.88;;;2.28;;
22417;SDS011;11376;50.932;4.442;2023-05-19T13:11:41;7.43;;;1.80;;
22417;SDS011;11376;50.932;4.442;2023-05-19T13:14:08;6.63;;;1.92;;
22417;SDS011;11376;50.932;4.442;2023-05-19T13:16:34;6.22;;;1.92;;
22417;SDS011;11376;50.932;4.442;2023-05-19T13:19:00;8.15;;;2.03;;
22417;SDS011;11376;50.932;4.442;2023-05-19T13:21:26;5.50;;;1.77;;
22417;SDS011;11376;50.932;4.442;2023-05-19T13:23:51;5.53;;;1.95;;
22417;SDS011;11376;50.932;4.442;2023-05-19T13:26:17;7.85;;;1.92;;
22417;SDS011;11376;50.932;4.442;2023-05-19T13:28:43;9.25;;;2.00;;
22417;SDS011;11376;50.932;4.442;2023-05-19T13:31:09;6.30;;;1.92;;
22417;SDS011;11376;50.932;4.442;2023-05-19T13:33:35;10.02;;;2.55;;
22417;SDS011;11376;50.932;4.442;2023-05-19T13:36:00;6.40;;;2.17;;
22417;SDS011;11376;50.932;4.442;2023-05-19T13:38:26;9.15;;;2.10;;
22417;SDS011;11376;50.932;4.442;2023-05-19T13:40:54;7.68;;;2.25;;
22417;SDS011;11376;50.932;4.442;2023-05-19T13:43:20;8.02;;;2.22;;
22417;SDS011;11376;50.932;4.442;2023-05-19T13:45:45;8.20;;;2.22;;
22417;SDS011;11376;50.932;4.442;2023-05-19T13:48:11;15.20;;;2.63;;
22417;SDS011;11376;50.932;4.442;2023-05-19T13:50:37;9.90;;;2.28;;
22417;SDS011;11376;50.932;4.442;2023-05-19T13:53:03;6.72;;;2.10;;
22417;SDS011;11376;50.932;4.442;2023-05-19T13:55:29;6.85;;;2.20;;
22417;SDS011;11376;50.932;4.442;2023-05-19T13:57:54;8.20;;;2.38;;
22417;SDS011;11376;50.932;4.442;2023-05-19T14:00:20;6.97;;;2.53;;
22417;SDS011;11376;50.932;4.442;2023-05-19T14:02:46;9.90;;;2.40;;
22417;SDS011;11376;50.932;4.442;2023-05-19T14:05:12;6.47;;;2.22;;
22417;SDS011;11376;50.932;4.442;2023-05-19T14:07:37;9.13;;;2.20;;
22417;SDS011;11376;50.932;4.442;2023-05-19T14:10:03;9.05;;;2.13;;
22417;SDS011;11376;50.932;4.442;2023-05-19T14:12:30;8.38;;;2.35;;
22417;SDS011;11376;50.932;4.442;2023-05-19T14:14:56;6.13;;;1.80;;
22417;SDS011;11376;50.932;4.442;2023-05-19T14:17:25;6.03;;;1.90;;
22417;SDS011;11376;50.932;4.442;2023-05-19T14:19:51;8.52;;;2.13;;
22417;SDS011;11376;50.932;4.442;2023-05-19T14:22:17;8.55;;;2.10;;
22417;SDS011;11376;50.932;4.442;2023-05-19T14:24:43;8.52;;;2.15;;
22417;SDS011;11376;50.932;4.442;2023-05-19T14:27:09;10.63;;;2.42;;
22417;SDS011;11376;50.932;4.442;2023-05-19T14:29:35;8.82;;;2.40;;
22417;SDS011;11376;50.932;4.442;2023-05-19T14:32:01;9.82;;;2.13;;
22417;SDS011;11376;50.932;4.442;2023-05-19T14:34:27;6.60;;;2.22;;
22417;SDS011;11376;50.932;4.442;2023-05-19T14:36:53;5.90;;;2.08;;
22417;SDS011;11376;50.932;4.442;2023-05-19T14:39:19;6.45;;;1.75;;
22417;SDS011;11376;50.932;4.442;2023-05-19T14:41:45;8.00;;;2.10;;
22417;SDS011;11376;50.932;4.442;2023-05-19T14:44:11;8.02;;;1.70;;
22417;SDS011;11376;50.932;4.442;2023-05-19T14:46:36;6.68;;;1.70;;
22417;SDS011;11376;50.932;4.442;2023-05-19T14:49:02;9.48;;;1.95;;
22417;SDS011;11376;50.932;4.442;2023-05-19T14:51:30;7.28;;;1.65;;
22417;SDS011;11376;50.932;4.442;2023-05-19T14:53:56;6.25;;;1.80;;
22417;SDS011;11376;50.932;4.442;2023-05-19T14:56:21;8.45;;;2.10;;
22417;SDS011;11376;50.932;4.442;2023-05-19T14:58:47;6.30;;;1.80;;
22417;SDS011;11376;50.932;4.442;2023-05-19T15:01:13;6.10;;;1.90;;
22417;SDS011;11376;50.932;4.442;2023-05-19T15:03:39;7.13;;;2.10;;
22417;SDS011;11376;50.932;4.442;2023-05-19T15:06:08;5.63;;;1.90;;
22417;SDS011;11376;50.932;4.442;2023-05-19T15:08:34;8.75;;;2.15;;
22417;SDS011;11376;50.932;4.442;2023-05-19T15:11:02;6.63;;;2.00;;
22417;SDS011;11376;50.932;4.442;2023-05-19T15:13:28;5.40;;;1.77;;
22417;SDS011;11376;50.932;4.442;2023-05-19T15:15:53;5.40;;;1.80;;
22417;SDS011;11376;50.932;4.442;2023-05-19T15:18:20;7.82;;;2.10;;
22417;SDS011;11376;50.932;4.442;2023-05-19T15:20:46;6.65;;;1.88;;
22417;SDS011;11376;50.932;4.442;2023-05-19T15:23:12;7.78;;;2.13;;
22417;SDS011;11376;50.932;4.442;2023-05-19T15:25:38;7.32;;;1.80;;
22417;SDS011;11376;50.932;4.442;2023-05-19T15:28:04;6.38;;;1.98;;
22417;SDS011;11376;50.932;4.442;2023-05-19T15:30:29;6.03;;;2.00;;
22417;SDS011;11376;50.932;4.442;2023-05-19T15:32:55;6.13;;;1.83;;
22417;SDS011;11376;50.932;4.442;2023-05-19T15:35:21;10.95;;;2.20;;
22417;SDS011;11376;50.932;4.442;2023-05-19T15:37:47;8.23;;;2.13;;
22417;SDS011;11376;50.932;4.442;2023-05-19T15:40:12;8.05;;;1.67;;
22417;SDS011;11376;50.932;4.442;2023-05-19T15:42:38;6.55;;;1.70;;